createdAt,value
2023-02-16T00:01:21.649Z,27.75
2023-02-16T00:03:49.132Z,27.63
2023-02-16T00:06:16.421Z,28.88
2023-02-16T00:08:44.452Z,27.92
2023-02-16T00:11:56.335Z,27.73
2023-02-16T00:14:26.182Z,29.00
2023-02-16T00:16:54.413Z,29.52
2023-02-16T00:19:23.629Z,27.30
2023-02-16T00:21:51.717Z,28.25
2023-02-16T00:24:19.224Z,28.77
2023-02-16T00:26:47.006Z,29.15
2023-02-16T00:29:34.370Z,28.42
2023-02-16T00:32:02.587Z,27.95
2023-02-16T00:34:35.731Z,29.23
2023-02-16T00:37:07.054Z,28.83
2023-02-16T00:39:34.577Z,28.27
2023-02-16T00:42:06.004Z,30.63
2023-02-16T00:44:40.171Z,26.98
2023-02-16T00:47:10.852Z,29.33
2023-02-16T00:49:37.954Z,29.05
2023-02-16T00:52:19.223Z,29.90
2023-02-16T00:54:46.450Z,29.60
2023-02-16T00:57:16.936Z,28.30
2023-02-16T00:59:44.120Z,30.35
2023-02-16T01:02:11.413Z,29.60
2023-02-16T01:04:38.613Z,30.40
2023-02-16T01:07:31.371Z,29.17
2023-02-16T01:10:17.261Z,30.70
2023-02-16T01:12:44.858Z,29.88
2023-02-16T01:15:16.177Z,30.45
2023-02-16T01:17:43.380Z,29.65
2023-02-16T01:20:16.684Z,30.58
2023-02-16T01:22:43.937Z,31.27
2023-02-16T01:25:11.214Z,31.08
2023-02-16T01:27:39.258Z,31.15
2023-02-16T01:30:07.464Z,30.63
2023-02-16T01:32:34.594Z,28.70
2023-02-16T01:35:01.655Z,31.10
2023-02-16T01:37:29.833Z,29.88
2023-02-16T01:39:57.232Z,29.25
2023-02-16T01:42:24.516Z,31.25
2023-02-16T01:44:57.963Z,31.65
2023-02-16T01:47:40.636Z,30.67
2023-02-16T01:50:24.266Z,30.95
2023-02-16T01:52:56.200Z,29.92
2023-02-16T01:55:25.983Z,32.75
2023-02-16T01:57:57.121Z,31.08
2023-02-16T02:00:42.989Z,33.53
2023-02-16T02:03:37.871Z,30.65
2023-02-16T02:06:05.420Z,29.55
2023-02-16T02:08:51.907Z,32.08
2023-02-16T02:11:30.604Z,32.22
2023-02-16T02:13:58.319Z,32.00
2023-02-16T02:16:28.489Z,32.33
2023-02-16T02:18:55.870Z,32.10
2023-02-16T02:21:51.491Z,33.28
2023-02-16T02:24:18.679Z,32.88
2023-02-16T02:27:04.586Z,33.50
2023-02-16T02:29:41.410Z,33.42
2023-02-16T02:32:11.949Z,32.00
2023-02-16T02:34:56.399Z,32.42
2023-02-16T02:37:41.984Z,32.53
2023-02-16T02:40:32.300Z,33.90
2023-02-16T02:43:14.968Z,33.90
2023-02-16T02:45:49.685Z,33.05
2023-02-16T02:48:16.774Z,33.38
2023-02-16T02:51:10.965Z,34.17
2023-02-16T02:53:44.782Z,33.47
2023-02-16T02:56:33.160Z,34.17
2023-02-16T02:59:24.163Z,34.72
2023-02-16T03:01:55.165Z,31.58
2023-02-16T03:04:25.876Z,33.17
2023-02-16T03:06:54.391Z,33.17
2023-02-16T03:09:21.621Z,33.80
2023-02-16T03:12:09.058Z,32.75
2023-02-16T03:14:38.636Z,34.10
2023-02-16T03:17:26.867Z,35.45
2023-02-16T03:20:13.381Z,32.67
2023-02-16T03:23:00.019Z,31.73
2023-02-16T03:25:48.356Z,34.13
2023-02-16T03:28:37.161Z,35.75
2023-02-16T03:31:05.666Z,32.83
2023-02-16T03:33:33.060Z,33.90
2023-02-16T03:36:00.489Z,33.88
2023-02-16T03:38:27.796Z,31.80
2023-02-16T03:40:55.463Z,32.92
2023-02-16T03:43:25.609Z,32.72
2023-02-16T03:45:52.761Z,33.15
2023-02-16T03:48:20.014Z,34.05
2023-02-16T03:50:47.284Z,32.75
2023-02-16T03:53:15.104Z,33.60
2023-02-16T03:55:44.824Z,32.45
2023-02-16T03:58:13.040Z,32.55
2023-02-16T04:00:40.614Z,33.65
2023-02-16T04:03:09.090Z,32.95
2023-02-16T04:05:36.644Z,31.77
2023-02-16T04:08:03.997Z,34.88
2023-02-16T04:10:31.124Z,33.70
2023-02-16T04:12:58.230Z,33.97
2023-02-16T04:15:26.576Z,32.28
2023-02-16T04:17:54.178Z,34.85
2023-02-16T04:20:26.166Z,34.38
2023-02-16T04:22:53.763Z,33.75
2023-02-16T04:25:21.325Z,36.00
2023-02-16T04:27:49.822Z,33.92
2023-02-16T04:30:19.331Z,34.35
2023-02-16T04:32:46.688Z,35.78
2023-02-16T04:35:15.549Z,34.10
2023-02-16T04:37:42.831Z,35.33
2023-02-16T04:40:13.525Z,35.70
2023-02-16T04:42:44.075Z,34.28
2023-02-16T04:45:11.797Z,33.20
2023-02-16T04:47:38.987Z,33.35
2023-02-16T04:50:06.514Z,31.92
2023-02-16T04:52:34.222Z,35.53
2023-02-16T04:55:01.399Z,35.13
2023-02-16T04:57:28.675Z,32.28
2023-02-16T04:59:55.816Z,32.22
2023-02-16T05:02:23.206Z,34.65
2023-02-16T05:04:51.640Z,33.80
2023-02-16T05:07:18.808Z,34.35
2023-02-16T05:09:45.892Z,33.58
2023-02-16T05:12:31.902Z,35.33
2023-02-16T05:14:59.047Z,34.45
2023-02-16T05:17:26.684Z,33.97
2023-02-16T05:19:57.974Z,36.08
2023-02-16T05:22:25.520Z,34.22
2023-02-16T05:24:53.107Z,34.63
2023-02-16T05:27:24.443Z,34.33
2023-02-16T05:29:51.605Z,32.35
2023-02-16T05:32:19.246Z,35.65
2023-02-16T05:34:46.370Z,32.15
2023-02-16T05:37:14.420Z,33.67
2023-02-16T05:39:41.591Z,33.90
2023-02-16T05:42:08.853Z,33.47
2023-02-16T05:44:36.115Z,30.60
2023-02-16T05:47:03.240Z,34.53
2023-02-16T05:49:30.408Z,34.42
2023-02-16T05:51:57.484Z,34.38
2023-02-16T05:54:24.777Z,33.95
2023-02-16T05:56:52.836Z,33.88
2023-02-16T05:59:20.269Z,32.47
2023-02-16T06:01:51.276Z,35.08
2023-02-16T06:04:19.283Z,33.80
2023-02-16T06:06:46.413Z,33.75
2023-02-16T06:09:13.522Z,33.63
2023-02-16T06:11:40.712Z,32.92
2023-02-16T06:14:12.217Z,34.75
2023-02-16T06:16:40.538Z,33.33
2023-02-16T06:19:07.858Z,33.95
2023-02-16T06:21:35.369Z,33.30
2023-02-16T06:24:02.914Z,33.47
2023-02-16T06:26:30.472Z,33.78
2023-02-16T06:28:57.585Z,34.08
2023-02-16T06:31:25.301Z,33.22
2023-02-16T06:33:53.051Z,34.78
2023-02-16T06:36:20.691Z,34.67
2023-02-16T06:38:47.990Z,34.28
2023-02-16T06:41:31.120Z,33.17
2023-02-16T06:43:59.538Z,35.08
2023-02-16T06:46:29.577Z,33.67
2023-02-16T06:48:56.864Z,36.63
2023-02-16T06:51:24.310Z,34.67
2023-02-16T06:53:51.460Z,36.22
2023-02-16T06:56:18.642Z,34.03
2023-02-16T06:58:45.750Z,32.92
2023-02-16T07:01:12.942Z,33.90
2023-02-16T07:03:40.321Z,35.45
2023-02-16T07:06:07.523Z,35.22
2023-02-16T07:08:35.849Z,34.47
2023-02-16T07:11:03.395Z,35.05
2023-02-16T07:13:30.665Z,35.25
2023-02-16T07:15:58.321Z,33.47
2023-02-16T07:18:25.422Z,35.65
2023-02-16T07:20:52.501Z,33.70
2023-02-16T07:23:19.729Z,35.22
2023-02-16T07:25:48.397Z,35.55
2023-02-16T07:28:15.618Z,34.67
2023-02-16T07:30:42.757Z,34.80
2023-02-16T07:33:10.163Z,35.50
2023-02-16T07:35:37.653Z,37.17
2023-02-16T07:38:05.848Z,36.45
2023-02-16T07:40:33.101Z,36.42
2023-02-16T07:43:01.216Z,37.35
2023-02-16T07:45:28.698Z,37.13
2023-02-16T07:47:55.826Z,37.17
2023-02-16T07:50:22.943Z,37.28
2023-02-16T07:52:50.125Z,36.40
2023-02-16T07:55:17.368Z,35.53
2023-02-16T07:57:44.497Z,35.33
2023-02-16T08:00:11.861Z,36.58
2023-02-16T08:02:39.158Z,34.47
2023-02-16T08:05:06.642Z,34.38
2023-02-16T08:07:33.769Z,36.60
2023-02-16T08:10:01.230Z,34.15
2023-02-16T08:12:28.311Z,34.45
2023-02-16T08:14:55.466Z,35.17
2023-02-16T08:17:22.576Z,36.42
2023-02-16T08:19:50.592Z,36.63
2023-02-16T08:22:18.396Z,36.13
2023-02-16T08:24:45.519Z,36.22
2023-02-16T08:27:12.741Z,35.65
2023-02-16T08:29:41.470Z,36.83
2023-02-16T08:32:11.085Z,36.97
2023-02-16T08:34:38.686Z,36.03
2023-02-16T08:37:06.123Z,36.78
2023-02-16T08:39:33.708Z,37.47
2023-02-16T08:42:01.616Z,36.15
2023-02-16T08:44:30.182Z,37.83
2023-02-16T08:46:59.287Z,35.80
2023-02-16T08:49:27.523Z,34.72
2023-02-16T08:51:55.726Z,36.90
2023-02-16T08:54:27.917Z,37.35
2023-02-16T08:56:55.761Z,37.45
2023-02-16T08:59:23.774Z,36.50
2023-02-16T09:01:51.336Z,36.95
2023-02-16T09:04:19.900Z,35.67
2023-02-16T09:06:48.355Z,34.40
2023-02-16T09:09:15.501Z,36.80
2023-02-16T09:11:42.661Z,36.00
2023-02-16T09:14:10.426Z,36.33
2023-02-16T09:16:39.483Z,35.50
2023-02-16T09:19:07.525Z,34.97
2023-02-16T09:21:34.717Z,38.80
2023-02-16T09:24:04.373Z,35.83
2023-02-16T09:26:33.232Z,37.53
2023-02-16T09:29:01.838Z,36.38
2023-02-16T09:31:30.885Z,35.60
2023-02-16T09:34:07.704Z,33.95
2023-02-16T09:36:35.205Z,36.35
2023-02-16T09:39:02.573Z,35.58
2023-02-16T09:41:41.886Z,36.05
2023-02-16T09:44:32.440Z,35.28
2023-02-16T09:47:01.582Z,33.90
2023-02-16T09:49:36.996Z,36.20
2023-02-16T09:52:18.959Z,33.65
2023-02-16T09:54:49.111Z,33.37
2023-02-16T09:57:26.739Z,33.13
2023-02-16T10:00:18.552Z,34.13
2023-02-16T10:02:48.990Z,33.40
2023-02-16T10:05:20.131Z,33.28
2023-02-16T10:08:09.459Z,31.58
2023-02-16T10:10:42.565Z,33.35
2023-02-16T10:13:16.169Z,33.97
2023-02-16T10:15:44.773Z,32.25
2023-02-16T10:18:18.547Z,33.85
2023-02-16T10:20:49.015Z,33.10
2023-02-16T10:23:41.483Z,34.10
2023-02-16T10:26:18.124Z,33.70
2023-02-16T10:28:47.401Z,33.33
2023-02-16T10:31:18.987Z,32.55
2023-02-16T10:33:54.798Z,35.75
2023-02-16T10:36:30.021Z,34.72
2023-02-16T10:39:08.264Z,36.90
2023-02-16T10:41:42.026Z,34.92
2023-02-16T10:44:09.379Z,35.60
2023-02-16T10:46:38.984Z,35.85
2023-02-16T10:49:06.183Z,34.33
2023-02-16T10:51:37.668Z,34.42
2023-02-16T10:54:07.728Z,35.42
2023-02-16T10:56:56.746Z,36.38
2023-02-16T10:59:25.626Z,35.42
2023-02-16T11:01:57.551Z,35.75
2023-02-16T11:04:32.174Z,34.65
2023-02-16T11:07:15.957Z,36.95
2023-02-16T11:09:46.543Z,37.47
2023-02-16T11:12:28.596Z,38.50
2023-02-16T11:14:59.426Z,38.43
2023-02-16T11:17:31.261Z,39.40
2023-02-16T11:20:05.626Z,38.20
2023-02-16T11:22:37.305Z,39.53
2023-02-16T11:25:21.219Z,37.15
2023-02-16T11:27:58.746Z,38.83
2023-02-16T11:30:32.178Z,38.25
2023-02-16T11:33:01.133Z,36.70
2023-02-16T11:35:28.374Z,38.40
2023-02-16T11:37:55.876Z,39.78
2023-02-16T11:40:24.588Z,37.85
2023-02-16T11:42:52.987Z,38.47
2023-02-16T11:45:27.110Z,39.38
2023-02-16T11:47:56.624Z,38.22
2023-02-16T11:50:25.673Z,39.40
2023-02-16T11:52:55.774Z,39.00
2023-02-16T11:55:33.301Z,42.10
2023-02-16T11:58:19.221Z,40.67
2023-02-16T12:00:54.716Z,42.97
2023-02-16T12:03:25.100Z,41.42
2023-02-16T12:06:04.257Z,42.63
2023-02-16T12:08:46.709Z,41.47
2023-02-16T12:11:30.910Z,43.90
2023-02-16T12:14:01.674Z,43.00
2023-02-16T12:16:41.680Z,43.05
2023-02-16T12:19:08.771Z,43.55
2023-02-16T12:21:45.366Z,45.53
2023-02-16T12:24:22.520Z,44.38
2023-02-16T12:26:54.850Z,48.33
2023-02-16T12:29:25.068Z,49.17
2023-02-16T12:32:15.914Z,47.53
2023-02-16T12:35:01.831Z,48.33
2023-02-16T12:37:34.812Z,48.60
2023-02-16T12:40:17.881Z,48.00
2023-02-16T12:42:51.196Z,46.20
2023-02-16T12:45:23.421Z,47.40
2023-02-16T12:47:54.921Z,48.15
2023-02-16T12:50:24.456Z,46.85
2023-02-16T12:52:52.177Z,47.58
2023-02-16T12:55:31.750Z,47.08
2023-02-16T12:58:02.817Z,44.20
2023-02-16T13:00:36.234Z,45.13
2023-02-16T13:03:17.869Z,45.20
2023-02-16T13:05:47.257Z,46.40
2023-02-16T13:08:39.881Z,44.00
2023-02-16T13:11:22.341Z,45.38
2023-02-16T13:13:50.777Z,43.92
2023-02-16T13:16:30.569Z,45.30
2023-02-16T13:18:58.632Z,43.90
2023-02-16T13:21:28.539Z,42.97
2023-02-16T13:24:04.222Z,46.67
2023-02-16T13:26:41.910Z,43.28
2023-02-16T13:29:29.078Z,40.30
2023-02-16T13:32:09.745Z,41.67
2023-02-16T13:34:38.196Z,43.72
2023-02-16T13:37:26.781Z,40.88
2023-02-16T13:39:59.832Z,41.40
2023-02-16T13:42:30.038Z,41.88
2023-02-16T13:44:58.629Z,39.70
2023-02-16T13:47:30.804Z,41.05
2023-02-16T13:50:06.174Z,42.15
2023-02-16T13:52:41.807Z,41.63
2023-02-16T13:55:21.961Z,41.00
2023-02-16T13:57:50.582Z,40.92
2023-02-16T14:00:30.507Z,40.00
2023-02-16T14:02:59.673Z,39.17
2023-02-16T14:05:28.800Z,40.10
2023-02-16T14:08:13.203Z,39.35
2023-02-16T14:10:55.377Z,40.20
2023-02-16T14:13:25.606Z,38.95
2023-02-16T14:15:53.754Z,40.65
2023-02-16T14:18:31.305Z,39.88
2023-02-16T14:21:06.328Z,40.70
2023-02-16T14:23:35.196Z,39.30
2023-02-16T14:26:07.090Z,40.72
2023-02-16T14:28:35.351Z,41.58
2023-02-16T14:31:04.377Z,38.72
2023-02-16T14:33:37.760Z,40.03
2023-02-16T14:36:08.976Z,39.25
2023-02-16T14:38:42.180Z,39.58
2023-02-16T14:41:15.836Z,41.10
2023-02-16T14:43:47.253Z,38.90
2023-02-16T14:46:33.006Z,38.17
2023-02-16T14:49:06.578Z,37.80
2023-02-16T14:51:36.598Z,40.17
2023-02-16T14:54:25.090Z,38.83
2023-02-16T14:56:53.560Z,35.88
2023-02-16T14:59:41.154Z,36.72
2023-02-16T15:02:37.852Z,37.72
2023-02-16T15:05:22.220Z,34.97
2023-02-16T15:07:52.273Z,36.40
2023-02-16T15:10:26.613Z,37.78
2023-02-16T15:12:54.469Z,35.63
2023-02-16T15:15:29.248Z,35.88
2023-02-16T15:17:56.878Z,37.88
2023-02-16T15:20:29.412Z,38.03
2023-02-16T15:25:27.966Z,34.35
2023-02-16T15:28:05.846Z,37.08
2023-02-16T15:30:34.066Z,35.30
2023-02-16T15:33:03.485Z,34.33
2023-02-16T15:35:33.797Z,33.05
2023-02-16T15:38:02.145Z,33.60
2023-02-16T15:40:31.827Z,36.10
2023-02-16T15:43:04.036Z,34.08
2023-02-16T15:45:37.705Z,32.22
2023-02-16T15:48:38.173Z,32.53
2023-02-16T15:51:08.337Z,32.70
2023-02-16T15:53:42.312Z,34.83
2023-02-16T15:56:30.034Z,33.05
2023-02-16T15:58:58.549Z,32.85
2023-02-16T16:01:37.209Z,32.78
2023-02-16T16:04:16.899Z,31.95
2023-02-16T16:06:46.076Z,33.35
2023-02-16T16:09:33.656Z,31.48
2023-02-16T16:12:05.777Z,32.03
2023-02-16T16:14:37.072Z,31.52
2023-02-16T16:17:04.733Z,32.40
2023-02-16T16:19:36.310Z,34.30
2023-02-16T16:22:04.482Z,30.80
2023-02-16T16:24:39.098Z,32.03
2023-02-16T16:27:08.410Z,30.77
2023-02-16T16:29:35.564Z,29.15
2023-02-16T16:32:03.822Z,29.55
2023-02-16T16:34:38.672Z,29.13
2023-02-16T16:37:07.594Z,28.77
2023-02-16T16:39:40.356Z,27.70
2023-02-16T16:42:09.628Z,27.42
2023-02-16T16:44:38.432Z,27.65
2023-02-16T16:47:24.158Z,30.02
2023-02-16T16:49:57.078Z,28.27
2023-02-16T16:52:30.524Z,28.00
2023-02-16T16:54:57.763Z,27.65
2023-02-16T16:57:25.275Z,27.35
2023-02-16T16:59:52.468Z,29.05
2023-02-16T17:02:19.556Z,28.17
2023-02-16T17:04:46.642Z,27.95
2023-02-16T17:07:13.757Z,28.70
2023-02-16T17:09:41.068Z,28.90
2023-02-16T17:12:09.705Z,28.70
2023-02-16T17:14:36.784Z,27.88
2023-02-16T17:17:05.968Z,28.50
2023-02-16T17:19:33.035Z,29.35
2023-02-16T17:22:00.198Z,28.30
2023-02-16T17:24:27.371Z,30.05
2023-02-16T17:26:54.478Z,29.58
2023-02-16T17:29:22.532Z,29.77
2023-02-16T17:31:50.657Z,28.48
2023-02-16T17:34:17.941Z,28.60
2023-02-16T17:36:45.337Z,29.67
2023-02-16T17:39:12.423Z,29.60
2023-02-16T17:41:39.576Z,28.08
2023-02-16T17:44:06.715Z,29.95
2023-02-16T17:46:33.809Z,30.35
2023-02-16T17:49:00.939Z,30.20
2023-02-16T17:51:30.233Z,29.42
2023-02-16T17:53:57.374Z,30.45
2023-02-16T17:56:25.432Z,29.00
2023-02-16T17:58:52.604Z,31.20
2023-02-16T18:01:20.427Z,29.88
2023-02-16T18:03:47.596Z,31.33
2023-02-16T18:06:18.475Z,29.73
2023-02-16T18:08:46.075Z,31.95
2023-02-16T18:11:13.292Z,30.77
2023-02-16T18:13:40.710Z,30.92
2023-02-16T18:16:08.379Z,31.67
2023-02-16T18:18:38.885Z,32.90
2023-02-16T18:21:06.155Z,33.70
2023-02-16T18:23:33.594Z,33.67
2023-02-16T18:26:00.671Z,31.80
2023-02-16T18:28:29.488Z,33.75
2023-02-16T18:30:56.904Z,33.33
2023-02-16T18:33:24.677Z,32.42
2023-02-16T18:35:52.989Z,32.13
2023-02-16T18:38:22.070Z,34.78
2023-02-16T18:40:49.729Z,34.30
2023-02-16T18:43:16.890Z,32.33
2023-02-16T18:45:44.110Z,34.30
2023-02-16T18:48:11.265Z,34.28
2023-02-16T18:50:38.557Z,36.42
2023-02-16T18:53:05.722Z,34.50
2023-02-16T18:55:33.297Z,35.42
2023-02-16T18:58:01.332Z,34.15
2023-02-16T19:00:28.591Z,34.83
2023-02-16T19:02:56.854Z,33.45
2023-02-16T19:05:24.536Z,36.90
2023-02-16T19:07:51.751Z,34.10
2023-02-16T19:10:19.364Z,37.90
2023-02-16T19:12:46.578Z,36.13
2023-02-16T19:15:13.847Z,38.03
2023-02-16T19:17:41.318Z,38.10
2023-02-16T19:20:12.088Z,36.65
2023-02-16T19:22:39.243Z,39.92
2023-02-16T19:25:07.455Z,40.63
2023-02-16T19:27:34.594Z,38.35
2023-02-16T19:30:01.732Z,39.95
2023-02-16T19:32:28.997Z,42.78
2023-02-16T19:34:56.071Z,40.55
2023-02-16T19:37:23.161Z,43.22
2023-02-16T19:39:50.294Z,41.58
2023-02-16T19:42:17.386Z,43.30
2023-02-16T19:44:44.754Z,44.00
2023-02-16T19:47:12.006Z,42.78
2023-02-16T19:49:51.020Z,43.50
2023-02-16T19:52:18.252Z,40.92
2023-02-16T19:54:45.386Z,41.30
2023-02-16T19:57:12.720Z,39.95
2023-02-16T19:59:39.870Z,40.60
2023-02-16T20:02:07.457Z,40.78
2023-02-16T20:04:35.909Z,41.65
2023-02-16T20:07:03.285Z,40.72
2023-02-16T20:09:30.596Z,40.63
2023-02-16T20:11:57.765Z,41.97
2023-02-16T20:14:24.929Z,41.97
2023-02-16T20:16:52.116Z,41.80
2023-02-16T20:19:19.718Z,42.20
2023-02-16T20:21:46.928Z,42.75
2023-02-16T20:24:14.914Z,43.20
2023-02-16T20:26:43.972Z,40.53
2023-02-16T20:29:12.365Z,41.92
2023-02-16T20:31:41.693Z,40.15
2023-02-16T20:34:09.446Z,42.95
2023-02-16T20:36:37.543Z,40.70
2023-02-16T20:39:06.340Z,41.70
2023-02-16T20:41:34.569Z,41.70
2023-02-16T20:44:02.896Z,41.58
2023-02-16T20:46:30.079Z,40.70
2023-02-16T20:48:57.384Z,39.47
2023-02-16T20:51:25.076Z,39.95
2023-02-16T20:53:52.397Z,40.58
2023-02-16T20:56:21.576Z,39.13
2023-02-16T20:58:49.474Z,39.53
2023-02-16T21:01:19.849Z,40.97
2023-02-16T21:03:47.415Z,40.45
2023-02-16T21:06:15.232Z,42.95
2023-02-16T21:08:42.485Z,42.05
2023-02-16T21:11:10.242Z,42.38
2023-02-16T21:13:39.684Z,40.75
2023-02-16T21:16:07.450Z,40.28
2023-02-16T21:18:35.437Z,39.33
2023-02-16T21:21:05.257Z,38.72
2023-02-16T21:23:32.707Z,41.45
2023-02-16T21:26:00.837Z,39.35
2023-02-16T21:28:28.393Z,40.50
2023-02-16T21:30:56.153Z,39.80
2023-02-16T21:33:23.663Z,36.88
2023-02-16T21:36:16.184Z,38.63
2023-02-16T21:38:43.482Z,37.88
2023-02-16T21:41:29.269Z,39.38
2023-02-16T21:44:03.122Z,36.95
2023-02-16T21:46:37.833Z,37.88
2023-02-16T21:49:06.240Z,38.42
2023-02-16T21:51:34.962Z,36.70
2023-02-16T21:54:02.772Z,37.95
2023-02-16T21:56:39.273Z,37.35
2023-02-16T21:59:07.779Z,36.17
2023-02-16T22:01:36.473Z,34.63
2023-02-16T22:04:04.945Z,36.72
2023-02-16T22:06:34.212Z,35.60
2023-02-16T22:09:04.405Z,36.05
2023-02-16T22:11:31.635Z,34.15
2023-02-16T22:14:00.103Z,32.75
2023-02-16T22:16:27.973Z,33.20
2023-02-16T22:19:05.534Z,32.40
2023-02-16T22:21:36.740Z,32.50
2023-02-16T22:24:04.443Z,32.55
2023-02-16T22:26:35.780Z,31.40
2023-02-16T22:29:04.676Z,30.67
2023-02-16T22:31:32.329Z,31.65
2023-02-16T22:34:03.488Z,31.00
2023-02-16T22:36:30.838Z,30.60
2023-02-16T22:38:58.410Z,28.83
2023-02-16T22:41:26.031Z,31.60
2023-02-16T22:43:54.434Z,31.77
2023-02-16T22:46:22.497Z,30.23
2023-02-16T22:48:49.607Z,31.73
2023-02-16T22:51:17.561Z,32.38
2023-02-16T22:53:44.775Z,32.13
2023-02-16T22:56:13.770Z,31.13
2023-02-16T22:58:41.081Z,30.80
2023-02-16T23:01:15.245Z,30.48
2023-02-16T23:03:42.903Z,31.08
2023-02-16T23:06:17.520Z,30.75
2023-02-16T23:08:45.248Z,28.20
2023-02-16T23:11:12.955Z,30.50
2023-02-16T23:13:40.454Z,28.55
2023-02-16T23:16:17.539Z,29.40
2023-02-16T23:18:45.108Z,28.23
2023-02-16T23:21:22.673Z,29.05
2023-02-16T23:23:50.320Z,28.73
2023-02-16T23:26:18.267Z,29.00
2023-02-16T23:28:45.723Z,28.52
2023-02-16T23:31:13.330Z,28.67
2023-02-16T23:33:40.591Z,28.63
2023-02-16T23:36:08.053Z,27.90
2023-02-16T23:38:35.598Z,28.70
2023-02-16T23:41:05.133Z,28.33
2023-02-16T23:43:32.442Z,27.33
2023-02-16T23:46:02.955Z,27.55
2023-02-16T23:48:30.355Z,29.70
2023-02-16T23:50:57.758Z,28.40
2023-02-16T23:53:25.477Z,27.40
2023-02-16T23:56:03.232Z,28.33
2023-02-16T23:58:31.520Z,28.08
